Time;durP1;ratioP1;P1;durP2;ratioP2;P2;SDS_P1;SDS_P2;PMS_P1;PMS_P2;Temp;Humidity;BMP_temperature;BMP_pressure;BME280_temperature;BME280_humidity;BME280_pressure;Samples;Min_cycle;Max_cycle;Signal;HPM_P1;HPM_P2
2022/07/22 00:01:11;;;;;;;11.10;6.20;;;;;;;;;;5055759;28;20241;-68
2022/07/22 00:03:37;;;;;;;11.00;6.63;;;;;;;;;;5055958;28;20178;-68
2022/07/22 00:06:03;;;;;;;9.77;6.37;;;;;;;;;;5037861;28;20183;-67
2022/07/22 00:08:29;;;;;;;13.80;6.80;;;;;;;;;;5055715;28;20225;-68
2022/07/22 00:10:55;;;;;;;10.10;7.07;;;;;;;;;;5055500;28;20670;-68
2022/07/22 00:13:21;;;;;;;15.07;7.17;;;;;;;;;;5055527;28;20178;-68
2022/07/22 00:15:47;;;;;;;12.63;7.13;;;;;;;;;;5055487;28;20185;-68
2022/07/22 00:18:13;;;;;;;11.83;7.13;;;;;;;;;;5055453;28;20213;-68
2022/07/22 00:20:39;;;;;;;13.97;6.90;;;;;;;;;;5055615;28;20224;-68
2022/07/22 00:23:05;;;;;;;9.37;6.27;;;;;;;;;;5055355;28;20186;-68
2022/07/22 00:25:31;;;;;;;13.43;6.80;;;;;;;;;;5055372;28;20178;-68
2022/07/22 00:27:57;;;;;;;14.47;6.57;;;;;;;;;;5055320;28;20182;-68
2022/07/22 00:30:23;;;;;;;8.93;6.80;;;;;;;;;;5055391;28;20183;-67
2022/07/22 00:32:49;;;;;;;13.13;6.77;;;;;;;;;;5037184;28;20206;-68
2022/07/22 00:35:15;;;;;;;13.77;7.73;;;;;;;;;;5055690;28;20552;-68
2022/07/22 00:37:41;;;;;;;12.67;7.40;;;;;;;;;;5053955;28;20603;-68
2022/07/22 00:40:07;;;;;;;13.27;6.90;;;;;;;;;;5037367;28;20179;-68
2022/07/22 00:42:34;;;;;;;13.23;7.20;;;;;;;;;;5055103;28;20708;-68
2022/07/22 00:45:00;;;;;;;15.50;6.70;;;;;;;;;;5037219;28;20185;-68
2022/07/22 00:47:26;;;;;;;20.03;7.60;;;;;;;;;;5055093;28;20175;-68
2022/07/22 00:49:52;;;;;;;13.50;7.17;;;;;;;;;;5055196;28;20209;-68
2022/07/22 00:52:19;;;;;;;15.40;7.07;;;;;;;;;;5054889;28;20225;-68
2022/07/22 00:54:45;;;;;;;15.13;6.17;;;;;;;;;;5055050;28;20178;-68
2022/07/22 00:57:11;;;;;;;10.95;6.97;;;;;;;;;;5035744;28;20388;-68
2022/07/22 00:59:37;;;;;;;13.03;7.43;;;;;;;;;;5055245;28;20261;-68
2022/07/22 01:02:04;;;;;;;11.10;6.43;;;;;;;;;;5036669;28;20202;-68
2022/07/22 01:04:29;;;;;;;9.53;6.53;;;;;;;;;;5054932;28;20252;-68
2022/07/22 01:06:55;;;;;;;8.37;6.63;;;;;;;;;;5054571;28;20638;-68
2022/07/22 01:09:21;;;;;;;9.57;6.50;;;;;;;;;;5054488;28;20617;-68
2022/07/22 01:11:47;;;;;;;9.23;6.07;;;;;;;;;;5054507;28;20206;-67
2022/07/22 01:14:13;;;;;;;11.43;6.00;;;;;;;;;;5054388;28;20170;-68
2022/07/22 01:16:39;;;;;;;14.37;7.20;;;;;;;;;;5054419;28;20174;-68
2022/07/22 01:19:05;;;;;;;11.63;6.67;;;;;;;;;;5054583;28;20638;-68
2022/07/22 01:21:32;;;;;;;7.23;6.50;;;;;;;;;;5036296;28;20209;-68
2022/07/22 01:23:58;;;;;;;14.57;7.40;;;;;;;;;;5036359;28;20186;-68
2022/07/22 01:26:24;;;;;;;15.20;7.70;;;;;;;;;;5036696;28;20232;-68
2022/07/22 01:28:50;;;;;;;13.37;6.70;;;;;;;;;;5054413;28;20187;-68
2022/07/22 01:31:16;;;;;;;9.40;6.07;;;;;;;;;;5054110;28;20202;-68
2022/07/22 01:33:42;;;;;;;11.27;6.63;;;;;;;;;;5036106;28;20224;-68
2022/07/22 01:36:08;;;;;;;12.63;6.33;;;;;;;;;;5053988;28;20175;-68
2022/07/22 01:38:35;;;;;;;9.40;7.20;;;;;;;;;;5036057;28;20189;-68
2022/07/22 01:41:01;;;;;;;15.53;8.37;;;;;;;;;;5053938;28;20674;-68
2022/07/22 01:43:27;;;;;;;13.80;7.90;;;;;;;;;;5054003;28;20174;-68
2022/07/22 01:45:53;;;;;;;11.63;8.10;;;;;;;;;;5036324;28;20554;-68
2022/07/22 01:48:20;;;;;;;10.30;7.40;;;;;;;;;;5054201;28;20179;-68
2022/07/22 01:50:46;;;;;;;13.37;7.87;;;;;;;;;;5054456;28;20222;-68
2022/07/22 01:53:12;;;;;;;10.97;7.30;;;;;;;;;;5036373;28;20225;-68
2022/07/22 01:55:38;;;;;;;12.77;7.03;;;;;;;;;;5054161;28;20639;-67
2022/07/22 01:58:05;;;;;;;12.13;7.33;;;;;;;;;;5035822;28;20183;-68
2022/07/22 02:00:32;;;;;;;11.57;7.33;;;;;;;;;;5053670;28;20178;-68
2022/07/22 02:02:58;;;;;;;12.50;7.17;;;;;;;;;;5035761;28;20190;-68
2022/07/22 02:05:24;;;;;;;13.20;7.83;;;;;;;;;;5035955;28;20576;-68
2022/07/22 02:07:50;;;;;;;9.73;6.63;;;;;;;;;;5035878;28;20536;-68
2022/07/22 02:10:16;;;;;;;10.03;7.10;;;;;;;;;;5053851;28;20260;-68
2022/07/22 02:12:42;;;;;;;13.20;7.03;;;;;;;;;;5053260;28;20688;-68
2022/07/22 02:15:09;;;;;;;8.17;6.20;;;;;;;;;;5053630;28;20174;-68
2022/07/22 02:17:35;;;;;;;8.53;6.40;;;;;;;;;;5053346;28;20183;-68
2022/07/22 02:20:01;;;;;;;7.70;6.50;;;;;;;;;;5053324;28;20179;-68
2022/07/22 02:22:27;;;;;;;7.80;6.40;;;;;;;;;;5035252;28;20288;-68
2022/07/22 02:24:53;;;;;;;9.87;7.63;;;;;;;;;;5053489;28;20261;-68
2022/07/22 02:27:19;;;;;;;13.13;7.60;;;;;;;;;;5053196;28;20175;-68
2022/07/22 02:29:45;;;;;;;10.03;7.70;;;;;;;;;;5053407;28;20183;-68
2022/07/22 02:32:10;;;;;;;10.30;8.07;;;;;;;;;;5035164;28;20305;-68
2022/07/22 02:34:36;;;;;;;9.67;7.20;;;;;;;;;;5053055;28;20174;-68
2022/07/22 02:37:03;;;;;;;14.47;7.73;;;;;;;;;;5053062;28;20179;-68
2022/07/22 02:39:29;;;;;;;10.03;7.23;;;;;;;;;;5035227;28;20189;-68
2022/07/22 02:41:55;;;;;;;9.40;7.10;;;;;;;;;;5052872;28;20624;-68
2022/07/22 02:44:21;;;;;;;8.57;6.50;;;;;;;;;;5053200;28;20637;-68
2022/07/22 02:46:46;;;;;;;7.43;6.00;;;;;;;;;;5035205;28;20192;-68
2022/07/22 02:49:12;;;;;;;8.77;6.03;;;;;;;;;;5052949;28;20642;-68
2022/07/22 02:51:38;;;;;;;10.37;6.23;;;;;;;;;;5053305;28;20206;-68
2022/07/22 02:54:05;;;;;;;10.13;5.67;;;;;;;;;;5052889;28;20232;-68
2022/07/22 02:56:31;;;;;;;10.80;5.97;;;;;;;;;;5053319;28;20202;-68
2022/07/22 02:58:57;;;;;;;8.97;6.30;;;;;;;;;;5052990;28;20174;-68
2022/07/22 03:01:23;;;;;;;10.73;5.93;;;;;;;;;;5056274;28;20209;-68
2022/07/22 03:03:49;;;;;;;10.67;5.80;;;;;;;;;;5056865;28;20184;-68
2022/07/22 03:06:15;;;;;;;11.23;5.53;;;;;;;;;;5038945;28;20265;-67
2022/07/22 03:08:41;;;;;;;11.37;5.60;;;;;;;;;;5057325;28;20186;-67
2022/07/22 03:11:07;;;;;;;9.37;5.27;;;;;;;;;;5056809;28;20194;-68
2022/07/22 03:13:33;;;;;;;8.27;5.53;;;;;;;;;;5056734;28;20213;-67
2022/07/22 03:15:59;;;;;;;9.13;5.60;;;;;;;;;;5056726;28;20176;-68
2022/07/22 03:18:25;;;;;;;11.13;6.23;;;;;;;;;;5056652;28;20646;-67
2022/07/22 03:20:50;;;;;;;6.87;5.33;;;;;;;;;;5038628;28;20289;-68
2022/07/22 03:23:16;;;;;;;14.27;6.10;;;;;;;;;;5038702;28;20182;-67
2022/07/22 03:25:42;;;;;;;12.30;5.57;;;;;;;;;;5056854;28;20182;-68
2022/07/22 03:28:08;;;;;;;11.47;6.27;;;;;;;;;;5038627;28;20256;-68
2022/07/22 03:30:34;;;;;;;9.80;6.03;;;;;;;;;;5056751;28;20634;-68
2022/07/22 03:33:01;;;;;;;8.20;5.17;;;;;;;;;;5038421;28;20628;-68
2022/07/22 03:35:26;;;;;;;12.43;6.27;;;;;;;;;;5038514;28;20555;-68
2022/07/22 03:37:53;;;;;;;9.87;6.07;;;;;;;;;;5038512;28;20182;-68
2022/07/22 03:40:19;;;;;;;12.07;6.73;;;;;;;;;;5038272;28;20201;-68
2022/07/22 03:42:45;;;;;;;7.90;6.40;;;;;;;;;;5038172;28;20221;-67
2022/07/22 03:45:11;;;;;;;10.37;6.63;;;;;;;;;;5056480;28;20641;-68
2022/07/22 03:47:37;;;;;;;10.90;6.47;;;;;;;;;;5038238;28;20256;-68
2022/07/22 03:50:03;;;;;;;9.43;5.97;;;;;;;;;;5056047;28;20262;-68
2022/07/22 03:52:29;;;;;;;8.73;5.73;;;;;;;;;;5056127;28;20289;-68
2022/07/22 03:54:55;;;;;;;10.83;6.03;;;;;;;;;;5056211;28;20193;-67
2022/07/22 03:57:21;;;;;;;7.67;5.47;;;;;;;;;;5055851;28;20182;-67
2022/07/22 03:59:47;;;;;;;10.33;5.70;;;;;;;;;;5055907;28;20186;-68
2022/07/22 04:02:13;;;;;;;10.77;5.63;;;;;;;;;;5055858;28;20213;-67
2022/07/22 04:04:39;;;;;;;7.83;4.70;;;;;;;;;;5055881;28;20175;-67
2022/07/22 04:07:05;;;;;;;10.23;5.27;;;;;;;;;;5055681;28;20210;-68
2022/07/22 04:09:31;;;;;;;6.80;4.60;;;;;;;;;;5055994;28;20228;-68
2022/07/22 04:11:57;;;;;;;10.23;4.30;;;;;;;;;;5037443;28;20708;-68
2022/07/22 04:14:23;;;;;;;8.43;4.63;;;;;;;;;;5037718;28;20181;-68
2022/07/22 04:16:49;;;;;;;7.03;4.53;;;;;;;;;;5055544;28;20179;-68
2022/07/22 04:19:15;;;;;;;8.27;4.33;;;;;;;;;;5055631;28;20182;-68
2022/07/22 04:21:42;;;;;;;8.17;4.10;;;;;;;;;;5037596;28;20230;-68
2022/07/22 04:24:08;;;;;;;7.50;4.47;;;;;;;;;;5037523;28;20183;-68
2022/07/22 04:26:34;;;;;;;8.00;4.33;;;;;;;;;;5055413;28;20184;-68
2022/07/22 04:29:00;;;;;;;6.87;4.47;;;;;;;;;;5055589;28;20587;-68
2022/07/22 04:31:26;;;;;;;7.77;4.80;;;;;;;;;;5037214;28;20591;-68
2022/07/22 04:33:52;;;;;;;14.63;4.97;;;;;;;;;;5055509;28;20167;-68
2022/07/22 04:36:18;;;;;;;9.40;4.80;;;;;;;;;;5055423;28;20182;-68
2022/07/22 04:38:44;;;;;;;7.93;4.07;;;;;;;;;;5037253;28;20185;-68
2022/07/22 04:41:10;;;;;;;8.60;4.03;;;;;;;;;;5037055;28;20301;-67
2022/07/22 04:43:36;;;;;;;7.77;4.77;;;;;;;;;;5055106;28;20256;-68
2022/07/22 04:46:03;;;;;;;10.17;4.17;;;;;;;;;;5055152;28;20662;-68
2022/07/22 04:48:29;;;;;;;8.03;3.93;;;;;;;;;;5037158;28;20182;-68
2022/07/22 04:50:59;;;;;;;5.73;4.20;;;;;;;;;;5037020;28;20552;-68
2022/07/22 04:53:24;;;;;;;7.43;3.60;;;;;;;;;;5037206;28;20706;-68
2022/07/22 04:55:50;;;;;;;5.67;3.90;;;;;;;;;;5037057;28;20179;-68
2022/07/22 04:58:16;;;;;;;6.07;3.60;;;;;;;;;;5037029;28;20265;-68
2022/07/22 05:00:42;;;;;;;9.07;4.13;;;;;;;;;;5054654;28;20182;-68
2022/07/22 05:03:08;;;;;;;5.80;3.70;;;;;;;;;;5054853;28;20178;-68
2022/07/22 05:05:34;;;;;;;5.67;3.67;;;;;;;;;;5054796;28;20240;-68
2022/07/22 05:08:00;;;;;;;5.77;3.97;;;;;;;;;;5055046;28;20228;-68
2022/07/22 05:10:27;;;;;;;7.57;3.50;;;;;;;;;;5054496;28;20182;-68
2022/07/22 05:12:53;;;;;;;8.47;3.57;;;;;;;;;;5036395;28;20256;-68
2022/07/22 05:15:19;;;;;;;14.33;3.80;;;;;;;;;;5054420;28;20227;-68
2022/07/22 05:17:45;;;;;;;10.40;3.83;;;;;;;;;;5054640;28;20269;-68
2022/07/22 05:20:11;;;;;;;7.37;3.77;;;;;;;;;;5054323;28;20182;-68
2022/07/22 05:22:37;;;;;;;8.13;3.57;;;;;;;;;;5053882;28;20199;-68
2022/07/22 05:25:03;;;;;;;6.80;3.77;;;;;;;;;;5036382;28;20544;-69
2022/07/22 05:27:30;;;;;;;10.30;3.97;;;;;;;;;;5054254;28;20240;-68
2022/07/22 05:29:57;;;;;;;6.90;3.87;;;;;;;;;;5054219;28;20174;-68
2022/07/22 05:32:23;;;;;;;6.13;3.73;;;;;;;;;;5054153;28;20229;-68
2022/07/22 05:34:48;;;;;;;6.90;3.90;;;;;;;;;;5036077;28;20639;-68
2022/07/22 05:37:15;;;;;;;8.00;4.43;;;;;;;;;;5054031;28;20175;-68
2022/07/22 05:39:42;;;;;;;6.87;3.33;;;;;;;;;;5036250;28;20182;-68
2022/07/22 05:42:08;;;;;;;5.50;3.73;;;;;;;;;;5054137;28;20700;-68
2022/07/22 05:44:33;;;;;;;5.30;3.60;;;;;;;;;;5054160;28;20257;-68
2022/07/22 05:46:59;;;;;;;8.60;3.40;;;;;;;;;;5036002;28;20186;-68
2022/07/22 05:49:26;;;;;;;6.40;3.77;;;;;;;;;;5053799;28;20217;-68
2022/07/22 05:51:52;;;;;;;8.93;3.90;;;;;;;;;;5035667;28;20583;-68
2022/07/22 05:54:18;;;;;;;5.50;3.20;;;;;;;;;;5055147;28;20178;-67
2022/07/22 05:56:44;;;;;;;8.17;3.17;;;;;;;;;;5053968;28;20182;-68
2022/07/22 05:59:10;;;;;;;6.00;3.13;;;;;;;;;;5054052;28;20174;-68
2022/07/22 06:01:36;;;;;;;7.10;3.27;;;;;;;;;;5035513;28;20229;-68
2022/07/22 06:04:02;;;;;;;5.17;3.27;;;;;;;;;;5035643;28;20551;-68
2022/07/22 06:06:28;;;;;;;5.13;3.10;;;;;;;;;;5035695;28;20178;-68
2022/07/22 06:08:54;;;;;;;7.90;3.30;;;;;;;;;;5053350;28;20598;-68
2022/07/22 06:11:20;;;;;;;5.60;3.60;;;;;;;;;;5053200;28;20220;-68
2022/07/22 06:13:46;;;;;;;10.67;3.07;;;;;;;;;;5053264;28;20547;-68
2022/07/22 06:16:12;;;;;;;8.40;3.03;;;;;;;;;;5053470;28;20174;-68
2022/07/22 06:18:38;;;;;;;5.23;2.93;;;;;;;;;;5053151;28;20253;-68
2022/07/22 06:21:04;;;;;;;7.17;3.23;;;;;;;;;;5053415;28;20198;-68
2022/07/22 06:23:30;;;;;;;8.43;4.03;;;;;;;;;;5035284;28;20175;-68
2022/07/22 06:25:56;;;;;;;7.27;3.60;;;;;;;;;;5053120;28;20178;-68
2022/07/22 06:28:22;;;;;;;10.57;4.40;;;;;;;;;;5035237;28;20201;-68
2022/07/22 06:30:48;;;;;;;8.90;4.10;;;;;;;;;;5035208;28;20301;-68
2022/07/22 06:33:14;;;;;;;6.97;4.43;;;;;;;;;;5035169;28;20202;-68
2022/07/22 06:35:40;;;;;;;9.80;4.83;;;;;;;;;;5053353;28;20648;-68
2022/07/22 06:38:06;;;;;;;10.87;4.43;;;;;;;;;;5053288;28;20253;-68
2022/07/22 06:40:33;;;;;;;5.57;3.70;;;;;;;;;;5053016;28;20276;-67
2022/07/22 06:42:59;;;;;;;6.57;3.80;;;;;;;;;;5053400;28;20170;-68
2022/07/22 06:45:25;;;;;;;6.13;3.60;;;;;;;;;;5052996;28;20274;-67
2022/07/22 06:47:51;;;;;;;7.70;4.93;;;;;;;;;;5053007;28;20228;-68
2022/07/22 06:50:17;;;;;;;7.90;2.83;;;;;;;;;;5034985;28;20661;-68
2022/07/22 06:52:43;;;;;;;6.77;3.97;;;;;;;;;;5053084;28;20232;-68
2022/07/22 06:55:10;;;;;;;5.23;3.57;;;;;;;;;;5035024;28;20638;-68
2022/07/22 06:57:36;;;;;;;3.73;3.10;;;;;;;;;;5052992;28;20181;-67
2022/07/22 07:00:03;;;;;;;4.37;3.07;;;;;;;;;;5035389;28;20269;-68
2022/07/22 07:02:29;;;;;;;4.20;2.80;;;;;;;;;;5053695;28;20203;-68
2022/07/22 07:04:55;;;;;;;5.67;3.20;;;;;;;;;;5035016;28;20186;-68
2022/07/22 07:07:21;;;;;;;8.03;3.10;;;;;;;;;;5034877;28;20182;-68
2022/07/22 07:09:47;;;;;;;9.17;3.00;;;;;;;;;;5052886;28;20324;-68
2022/07/22 07:12:13;;;;;;;3.97;2.80;;;;;;;;;;5034696;28;20202;-68
2022/07/22 07:14:39;;;;;;;8.73;3.40;;;;;;;;;;5052645;28;20179;-68
2022/07/22 07:17:05;;;;;;;4.67;2.90;;;;;;;;;;5034783;28;20268;-68
2022/07/22 07:19:31;;;;;;;5.90;3.10;;;;;;;;;;5034799;28;20233;-68
2022/07/22 07:21:57;;;;;;;5.20;3.57;;;;;;;;;;5052620;28;20198;-68
2022/07/22 07:24:23;;;;;;;8.10;4.43;;;;;;;;;;5052532;28;20182;-68
2022/07/22 07:26:49;;;;;;;7.43;4.10;;;;;;;;;;5052451;28;20213;-68
2022/07/22 07:29:15;;;;;;;8.17;3.80;;;;;;;;;;5052442;28;20688;-68
2022/07/22 07:31:41;;;;;;;6.10;4.53;;;;;;;;;;5034525;28;20625;-68
2022/07/22 07:34:06;;;;;;;8.10;4.57;;;;;;;;;;5052391;28;20183;-68
2022/07/22 07:36:32;;;;;;;5.30;3.87;;;;;;;;;;5034453;28;20178;-68
2022/07/22 07:38:58;;;;;;;6.40;4.57;;;;;;;;;;5052824;28;20174;-68
2022/07/22 07:41:24;;;;;;;10.30;4.93;;;;;;;;;;5052424;28;20638;-68
2022/07/22 07:43:50;;;;;;;9.13;4.60;;;;;;;;;;5052805;28;20179;-68
2022/07/22 07:46:16;;;;;;;9.87;5.50;;;;;;;;;;5053942;28;20217;-68
2022/07/22 07:48:42;;;;;;;6.53;4.07;;;;;;;;;;5056030;28;20201;-67
2022/07/22 07:51:08;;;;;;;6.40;4.30;;;;;;;;;;5055840;28;20202;-68
2022/07/22 07:53:34;;;;;;;8.73;4.37;;;;;;;;;;5038280;28;20192;-68
2022/07/22 07:56:00;;;;;;;9.50;4.30;;;;;;;;;;5055963;28;20186;-68
2022/07/22 07:58:26;;;;;;;6.57;3.53;;;;;;;;;;5038111;28;20247;-68
2022/07/22 08:00:52;;;;;;;5.90;3.90;;;;;;;;;;5055805;28;20248;-68
2022/07/22 08:03:18;;;;;;;6.87;4.57;;;;;;;;;;5055801;28;20186;-68
2022/07/22 08:05:44;;;;;;;10.67;4.17;;;;;;;;;;5055585;28;20178;-68
2022/07/22 08:08:10;;;;;;;6.23;3.60;;;;;;;;;;5055635;28;20182;-68
2022/07/22 08:10:36;;;;;;;5.70;3.33;;;;;;;;;;5055534;28;20190;-68
2022/07/22 08:13:02;;;;;;;8.07;3.13;;;;;;;;;;5055506;28;20556;-68
2022/07/22 08:15:28;;;;;;;5.00;3.20;;;;;;;;;;5055489;28;20550;-68
2022/07/22 08:17:55;;;;;;;6.50;3.20;;;;;;;;;;5055650;28;20674;-68
2022/07/22 08:20:21;;;;;;;5.90;3.33;;;;;;;;;;5055402;28;20181;-68
2022/07/22 08:22:47;;;;;;;4.33;2.90;;;;;;;;;;5037459;28;20220;-68
2022/07/22 08:25:13;;;;;;;6.83;3.63;;;;;;;;;;5055360;28;20175;-68
2022/07/22 08:27:39;;;;;;;4.40;3.30;;;;;;;;;;5037375;28;20178;-68
2022/07/22 08:30:06;;;;;;;5.43;3.00;;;;;;;;;;5055544;28;20202;-68
2022/07/22 08:32:32;;;;;;;4.70;3.60;;;;;;;;;;5037149;28;20213;-68
2022/07/22 08:34:58;;;;;;;4.93;2.97;;;;;;;;;;5055100;28;20175;-68
2022/07/22 08:37:25;;;;;;;3.13;2.80;;;;;;;;;;5037273;28;20231;-68
2022/07/22 08:39:51;;;;;;;11.07;3.70;;;;;;;;;;5055093;28;20179;-68
2022/07/22 08:42:18;;;;;;;6.37;3.27;;;;;;;;;;5054917;28;20214;-68
2022/07/22 08:44:44;;;;;;;6.07;2.67;;;;;;;;;;5037137;28;20179;-68
2022/07/22 08:47:10;;;;;;;4.97;3.20;;;;;;;;;;5055024;28;20175;-68
2022/07/22 08:49:36;;;;;;;5.10;3.40;;;;;;;;;;5054829;28;20178;-67
2022/07/22 08:52:02;;;;;;;5.00;3.37;;;;;;;;;;5054711;28;20214;-68
2022/07/22 08:54:28;;;;;;;6.13;3.37;;;;;;;;;;5036878;28;20183;-68
2022/07/22 08:56:54;;;;;;;4.83;3.30;;;;;;;;;;5054549;28;20245;-68
2022/07/22 08:59:20;;;;;;;7.13;3.83;;;;;;;;;;5036350;28;20657;-68
2022/07/22 09:02:05;;;;;;;3.73;3.17;;;;;;;;;;5054916;28;20288;-68
2022/07/22 09:04:31;;;;;;;5.37;3.07;;;;;;;;;;5055365;28;20214;-67
2022/07/22 09:06:57;;;;;;;7.10;3.00;;;;;;;;;;5054648;28;20178;-67
2022/07/22 09:09:31;;;;;;;4.33;3.10;;;;;;;;;;5054531;28;20182;-67
2022/07/22 09:12:04;;;;;;;7.70;3.67;;;;;;;;;;5054505;28;20301;-67
2022/07/22 09:14:43;;;;;;;7.73;3.47;;;;;;;;;;5036555;28;20236;-67
2022/07/22 09:17:22;;;;;;;3.40;2.23;;;;;;;;;;5054882;28;20214;-67
2022/07/22 09:19:48;;;;;;;4.43;2.80;;;;;;;;;;5054499;28;20173;-67
2022/07/22 09:22:14;;;;;;;6.13;2.50;;;;;;;;;;5054632;28;20273;-68
2022/07/22 09:24:40;;;;;;;5.07;2.90;;;;;;;;;;5036317;28;20183;-67
2022/07/22 09:27:06;;;;;;;6.97;3.13;;;;;;;;;;5054558;28;20201;-67
2022/07/22 09:29:32;;;;;;;6.20;3.30;;;;;;;;;;5054454;28;20175;-67
2022/07/22 09:31:58;;;;;;;11.10;3.17;;;;;;;;;;5036225;28;20217;-67
2022/07/22 09:34:28;;;;;;;5.37;2.90;;;;;;;;;;5054240;28;20228;-67
2022/07/22 09:36:58;;;;;;;4.90;2.60;;;;;;;;;;5054125;28;20175;-67
2022/07/22 09:39:28;;;;;;;7.47;3.10;;;;;;;;;;5036222;28;20534;-67
2022/07/22 09:42:01;;;;;;;6.13;2.80;;;;;;;;;;5036308;28;20721;-67
2022/07/22 09:44:27;;;;;;;4.77;2.97;;;;;;;;;;5054492;28;20185;-67
2022/07/22 09:46:53;;;;;;;7.77;3.00;;;;;;;;;;5054573;28;20186;-67
2022/07/22 09:49:37;;;;;;;4.43;2.60;;;;;;;;;;5036219;28;20182;-68
2022/07/22 09:52:03;;;;;;;5.03;2.40;;;;;;;;;;5053708;28;20202;-68
2022/07/22 09:54:30;;;;;;;6.43;2.57;;;;;;;;;;5053600;28;20236;-68
2022/07/22 09:56:57;;;;;;;6.20;2.73;;;;;;;;;;5053530;28;20189;-68
2022/07/22 09:59:23;;;;;;;5.80;3.20;;;;;;;;;;5053591;28;20177;-68
2022/07/22 10:01:51;;;;;;;4.97;3.00;;;;;;;;;;5053710;28;20226;-68
2022/07/22 10:04:20;;;;;;;6.90;3.27;;;;;;;;;;5054237;28;20170;-67
2022/07/22 10:06:47;;;;;;;5.37;2.97;;;;;;;;;;5035626;28;20186;-68
2022/07/22 10:09:14;;;;;;;6.47;3.30;;;;;;;;;;5035339;28;20540;-68
2022/07/22 10:11:46;;;;;;;4.37;2.83;;;;;;;;;;5053282;28;20213;-68
2022/07/22 10:14:14;;;;;;;8.03;3.90;;;;;;;;;;5053621;28;20204;-68
2022/07/22 10:16:40;;;;;;;5.60;3.33;;;;;;;;;;5035403;28;20558;-68
2022/07/22 10:19:07;;;;;;;5.77;3.23;;;;;;;;;;5035331;28;20210;-68
2022/07/22 10:21:33;;;;;;;4.47;3.33;;;;;;;;;;5053125;28;20618;-68
2022/07/22 10:24:10;;;;;;;5.20;3.90;;;;;;;;;;5053460;28;20665;-68
2022/07/22 10:26:51;;;;;;;7.43;3.90;;;;;;;;;;5053116;28;20707;-67
2022/07/22 10:29:26;;;;;;;7.07;4.40;;;;;;;;;;5053128;28;20253;-68
2022/07/22 10:32:12;;;;;;;6.80;4.20;;;;;;;;;;5035048;28;20685;-68
2022/07/22 10:34:38;;;;;;;9.67;5.50;;;;;;;;;;5053205;28;20201;-68
2022/07/22 10:37:04;;;;;;;7.63;4.57;;;;;;;;;;5053243;28;20175;-68
2022/07/22 10:39:30;;;;;;;7.37;4.67;;;;;;;;;;5053474;28;20646;-68
2022/07/22 10:41:56;;;;;;;8.13;5.03;;;;;;;;;;5052802;28;20532;-68
2022/07/22 10:44:41;;;;;;;8.60;5.17;;;;;;;;;;5034950;28;20186;-68
2022/07/22 10:47:07;;;;;;;10.00;5.20;;;;;;;;;;5053154;28;20240;-68
2022/07/22 10:49:33;;;;;;;8.60;5.17;;;;;;;;;;5052854;28;20209;-68
2022/07/22 10:52:08;;;;;;;6.83;5.37;;;;;;;;;;5052693;28;20212;-68
2022/07/22 10:54:34;;;;;;;8.17;5.67;;;;;;;;;;5035024;28;20630;-67
2022/07/22 10:57:00;;;;;;;7.77;6.10;;;;;;;;;;5053038;28;20175;-67
2022/07/22 10:59:26;;;;;;;9.10;6.60;;;;;;;;;;5052751;28;20228;-68
2022/07/22 11:01:57;;;;;;;7.07;5.40;;;;;;;;;;5052706;28;20201;-67
2022/07/22 11:04:25;;;;;;;9.20;5.87;;;;;;;;;;5034848;28;20224;-67
2022/07/22 11:06:52;;;;;;;7.60;5.87;;;;;;;;;;5052960;28;20179;-67
2022/07/22 11:09:19;;;;;;;11.87;6.10;;;;;;;;;;5052631;28;20179;-67
2022/07/22 11:11:50;;;;;;;8.67;6.90;;;;;;;;;;5052560;28;20388;-67
2022/07/22 11:14:21;;;;;;;9.23;6.13;;;;;;;;;;5052564;28;20236;-67
2022/07/22 11:16:48;;;;;;;8.33;6.17;;;;;;;;;;5034721;28;20186;-67
2022/07/22 11:19:14;;;;;;;7.57;6.00;;;;;;;;;;5034725;28;20270;-67
2022/07/22 11:21:40;;;;;;;6.67;5.90;;;;;;;;;;5054644;28;20202;-68
2022/07/22 11:24:07;;;;;;;7.47;6.10;;;;;;;;;;5038580;28;20194;-67
2022/07/22 11:26:42;;;;;;;7.40;5.70;;;;;;;;;;5056420;28;20189;-67
2022/07/22 11:29:09;;;;;;;11.33;5.50;;;;;;;;;;5056301;28;20209;-67
2022/07/22 11:31:35;;;;;;;7.50;5.60;;;;;;;;;;5038314;28;20589;-67
2022/07/22 11:34:05;;;;;;;6.60;4.93;;;;;;;;;;5056355;28;20178;-67
2022/07/22 11:36:32;;;;;;;8.10;4.90;;;;;;;;;;5056429;28;20167;-68
2022/07/22 11:38:58;;;;;;;7.30;5.13;;;;;;;;;;5038334;28;20183;-67
2022/07/22 11:41:24;;;;;;;5.90;4.80;;;;;;;;;;5038112;28;20305;-67
2022/07/22 11:43:50;;;;;;;5.57;4.37;;;;;;;;;;5056139;28;20189;-67
2022/07/22 11:46:17;;;;;;;8.30;4.90;;;;;;;;;;5056330;28;20177;-68
2022/07/22 11:48:44;;;;;;;6.00;4.47;;;;;;;;;;5038255;28;20178;-68
2022/07/22 11:51:11;;;;;;;9.67;4.27;;;;;;;;;;5038214;28;20563;-68
2022/07/22 11:53:38;;;;;;;5.53;4.33;;;;;;;;;;5038007;28;20187;-67
2022/07/22 11:56:05;;;;;;;6.70;4.63;;;;;;;;;;5056163;28;20178;-67
2022/07/22 11:58:38;;;;;;;6.03;4.23;;;;;;;;;;5056095;28;20174;-67
2022/07/22 12:01:06;;;;;;;4.93;4.43;;;;;;;;;;5055688;28;20712;-67
2022/07/22 12:03:33;;;;;;;6.83;5.07;;;;;;;;;;5055830;28;20651;-67
2022/07/22 12:05:59;;;;;;;6.90;5.77;;;;;;;;;;5055915;28;20174;-67
2022/07/22 12:08:25;;;;;;;8.13;6.33;;;;;;;;;;5055818;28;20202;-67
2022/07/22 12:10:51;;;;;;;8.10;6.43;;;;;;;;;;5037713;28;20222;-67
2022/07/22 12:13:17;;;;;;;7.67;6.03;;;;;;;;;;5037809;28;20636;-68
2022/07/22 12:15:43;;;;;;;7.63;5.77;;;;;;;;;;5056033;28;20178;-68
2022/07/22 12:18:22;;;;;;;8.13;5.60;;;;;;;;;;5037431;28;20182;-67
2022/07/22 12:20:49;;;;;;;7.63;5.90;;;;;;;;;;5055575;28;20645;-67
2022/07/22 12:23:15;;;;;;;7.83;5.20;;;;;;;;;;5055632;28;20252;-67
2022/07/22 12:25:51;;;;;;;6.07;4.80;;;;;;;;;;5055467;28;20189;-67
2022/07/22 12:28:17;;;;;;;6.93;4.57;;;;;;;;;;5055949;28;20178;-67
2022/07/22 12:30:43;;;;;;;7.23;5.00;;;;;;;;;;5055595;28;20182;-67
2022/07/22 12:33:16;;;;;;;10.03;4.43;;;;;;;;;;5055250;28;20204;-66
2022/07/22 12:35:42;;;;;;;7.10;5.07;;;;;;;;;;5055382;28;20182;-67
2022/07/22 12:38:09;;;;;;;8.60;5.10;;;;;;;;;;5055498;28;20170;-67
2022/07/22 12:40:35;;;;;;;6.33;4.50;;;;;;;;;;5055041;28;20194;-66
2022/07/22 12:43:03;;;;;;;6.03;4.90;;;;;;;;;;5037637;28;20281;-67
2022/07/22 12:45:30;;;;;;;7.13;4.50;;;;;;;;;;5055663;28;20181;-67
2022/07/22 12:47:59;;;;;;;7.87;5.13;;;;;;;;;;5055754;28;20638;-67
2022/07/22 12:50:24;;;;;;;11.73;5.30;;;;;;;;;;5037617;28;20211;-67
2022/07/22 12:52:53;;;;;;;5.53;4.40;;;;;;;;;;5055301;28;20248;-67
2022/07/22 12:55:19;;;;;;;5.20;4.00;;;;;;;;;;5037014;28;20179;-67
2022/07/22 12:57:45;;;;;;;6.00;4.23;;;;;;;;;;5054883;28;20197;-67
2022/07/22 13:00:11;;;;;;;4.77;3.90;;;;;;;;;;5054895;28;20174;-66
2022/07/22 13:02:37;;;;;;;3.93;3.43;;;;;;;;;;5037076;28;20572;-67
2022/07/22 13:05:03;;;;;;;4.57;3.20;;;;;;;;;;5055239;28;20183;-67
2022/07/22 13:07:29;;;;;;;6.90;3.43;;;;;;;;;;5054695;28;20182;-67
2022/07/22 13:09:55;;;;;;;5.77;3.80;;;;;;;;;;5054868;28;20231;-67
2022/07/22 13:12:21;;;;;;;5.40;3.70;;;;;;;;;;5036406;28;20217;-68
2022/07/22 13:14:47;;;;;;;7.13;3.57;;;;;;;;;;5054735;28;20170;-67
2022/07/22 13:17:13;;;;;;;4.83;3.67;;;;;;;;;;5054523;28;20174;-67
2022/07/22 13:19:39;;;;;;;7.13;4.23;;;;;;;;;;5054429;28;20178;-67
2022/07/22 13:22:05;;;;;;;6.07;4.40;;;;;;;;;;5054275;28;20670;-67
2022/07/22 13:24:31;;;;;;;5.90;4.80;;;;;;;;;;5036490;28;20236;-68
2022/07/22 13:26:57;;;;;;;7.83;5.30;;;;;;;;;;5054286;28;20244;-67
2022/07/22 13:29:23;;;;;;;5.83;4.30;;;;;;;;;;5036327;28;20598;-68
2022/07/22 13:31:49;;;;;;;6.20;4.03;;;;;;;;;;5054452;28;20242;-66
2022/07/22 13:34:15;;;;;;;4.50;3.60;;;;;;;;;;5054424;28;20596;-67
2022/07/22 13:36:41;;;;;;;5.40;4.10;;;;;;;;;;5054085;28;20232;-67
2022/07/22 13:39:07;;;;;;;6.67;4.00;;;;;;;;;;5036038;28;20178;-67
2022/07/22 13:41:33;;;;;;;6.33;4.00;;;;;;;;;;5035851;28;20245;-67
2022/07/22 13:43:59;;;;;;;4.03;3.63;;;;;;;;;;5053364;28;20210;-67
2022/07/22 13:46:25;;;;;;;5.73;3.90;;;;;;;;;;5054149;28;20184;-65
2022/07/22 13:48:53;;;;;;;5.73;3.80;;;;;;;;;;5053910;28;20190;-65
2022/07/22 13:51:19;;;;;;;5.10;4.00;;;;;;;;;;5036190;28;20202;-68
2022/07/22 13:53:45;;;;;;;4.73;3.47;;;;;;;;;;5054290;28;20253;-68
2022/07/22 13:56:11;;;;;;;4.27;3.43;;;;;;;;;;5035547;28;20252;-66
2022/07/22 13:58:39;;;;;;;4.60;3.00;;;;;;;;;;5054306;28;20619;-65
2022/07/22 14:01:06;;;;;;;5.47;3.47;;;;;;;;;;5036072;28;20577;-68
2022/07/22 14:03:32;;;;;;;5.90;4.07;;;;;;;;;;5035960;28;20217;-66
2022/07/22 14:05:58;;;;;;;4.90;3.70;;;;;;;;;;5036131;28;20736;-65
2022/07/22 14:08:24;;;;;;;5.83;4.13;;;;;;;;;;5036132;28;20289;-66
2022/07/22 14:10:50;;;;;;;4.53;3.47;;;;;;;;;;5054014;28;20178;-66
2022/07/22 14:13:16;;;;;;;6.70;3.87;;;;;;;;;;5035496;28;20210;-67
2022/07/22 14:15:42;;;;;;;5.43;3.50;;;;;;;;;;5053416;28;20201;-66
2022/07/22 14:18:08;;;;;;;5.03;3.97;;;;;;;;;;5035474;28;20179;-67
2022/07/22 14:20:35;;;;;;;8.17;4.03;;;;;;;;;;5053231;28;20170;-67
2022/07/22 14:23:02;;;;;;;4.77;4.10;;;;;;;;;;5053353;28;20182;-67
2022/07/22 14:25:29;;;;;;;6.43;3.90;;;;;;;;;;5035505;28;20187;-67
2022/07/22 14:27:55;;;;;;;5.97;3.57;;;;;;;;;;5053136;28;20190;-67
2022/07/22 14:30:21;;;;;;;4.17;3.50;;;;;;;;;;5053077;28;20178;-67
2022/07/22 14:32:47;;;;;;;5.57;3.50;;;;;;;;;;5052933;28;20210;-67
2022/07/22 14:35:13;;;;;;;6.07;3.90;;;;;;;;;;5053073;28;20554;-67
2022/07/22 14:37:39;;;;;;;4.60;3.50;;;;;;;;;;5053333;28;20622;-67